Time;durP1;ratioP1;P1;durP2;ratioP2;P2;SDS_P1;SDS_P2;PMS_P1;PMS_P2;Temp;Humidity;BMP_temperature;BMP_pressure;BME280_temperature;BME280_humidity;BME280_pressure;Samples;Min_cycle;Max_cycle;Signal;HPM_P1;HPM_P2
2024/03/18 00:02:44;;;;;;;18.65;15.00;;;;;;;15.60;77.42;100551.81;5033518;28;20045;-82
2024/03/18 00:05:49;;;;;;;19.25;13.15;;;;;;;15.79;75.93;100545.28;5033624;28;20049;-81
2024/03/18 00:08:53;;;;;;;13.93;11.07;;;;;;;15.56;75.41;100550.41;5033361;28;20041;-80
2024/03/18 00:11:58;;;;;;;15.40;10.30;;;;;;;15.19;76.60;100547.97;5036742;28;20381;-80
2024/03/18 00:15:03;;;;;;;16.00;10.15;;;;;;;15.38;75.59;100541.50;5011342;28;20038;-81
2024/03/18 00:18:08;;;;;;;12.40;8.65;;;;;;;15.64;73.76;100550.47;5005229;28;20046;-82
2024/03/18 00:21:14;;;;;;;14.10;9.50;;;;;;;15.55;73.90;100556.84;5017137;28;20057;-82
2024/03/18 00:24:18;;;;;;;13.50;9.52;;;;;;;15.67;73.62;100550.16;5016340;28;20044;-80
2024/03/18 00:27:23;;;;;;;11.90;8.95;;;;;;;15.52;74.05;100549.06;5017023;28;20481;-80
2024/03/18 00:30:27;;;;;;;14.18;10.55;;;;;;;15.67;73.68;100541.16;5005039;28;20057;-81
2024/03/18 00:33:32;;;;;;;13.15;9.50;;;;;;;15.75;73.90;100544.75;5016615;28;20038;-81
2024/03/18 00:36:36;;;;;;;15.00;9.63;;;;;;;15.67;73.66;100547.44;5023888;28;20049;-82
2024/03/18 00:39:43;;;;;;;17.55;10.15;;;;;;;15.50;74.45;100551.06;5037910;28;20044;-80
2024/03/18 00:42:48;;;;;;;15.10;10.20;;;;;;;15.77;73.31;100545.47;5029153;28;20389;-81
2024/03/18 00:45:52;;;;;;;14.80;9.27;;;;;;;15.92;73.07;100546.53;5005489;28;20046;-81
2024/03/18 00:48:57;;;;;;;13.27;9.10;;;;;;;16.00;72.54;100542.97;5017285;28;20057;-81
2024/03/18 00:52:01;;;;;;;14.13;9.35;;;;;;;16.05;72.56;100538.75;5016982;28;20050;-82
2024/03/18 00:55:10;;;;;;;13.98;8.85;;;;;;;16.11;71.85;100532.69;5017322;28;20053;-82
2024/03/18 00:58:14;;;;;;;15.43;8.48;;;;;;;16.00;72.18;100524.88;5005032;28;20053;-82
2024/03/18 01:01:18;;;;;;;13.40;9.23;;;;;;;16.00;72.48;100527.56;5016733;28;20052;-82
2024/03/18 01:04:23;;;;;;;14.70;9.07;;;;;;;15.68;72.36;100519.34;5016834;28;20389;-82
2024/03/18 01:07:27;;;;;;;11.43;8.35;;;;;;;15.29;73.84;100524.38;5004768;28;20397;-82
2024/03/18 01:10:31;;;;;;;14.50;8.73;;;;;;;15.30;74.33;100506.31;5016744;28;20046;-81
2024/03/18 01:13:36;;;;;;;13.43;8.45;;;;;;;15.35;73.99;100509.38;5016703;28;20048;-82
2024/03/18 01:16:41;;;;;;;12.40;8.60;;;;;;;15.39;74.46;100513.44;5016181;28;20057;-82
2024/03/18 01:19:45;;;;;;;12.00;8.45;;;;;;;15.62;72.13;100511.91;5016645;28;20053;-82
2024/03/18 01:22:49;;;;;;;13.93;7.35;;;;;;;15.68;71.96;100510.41;5004066;28;20042;-82
2024/03/18 01:25:53;;;;;;;14.68;8.02;;;;;;;15.57;72.04;100509.69;5004602;28;20393;-82
2024/03/18 01:28:58;;;;;;;13.60;7.05;;;;;;;15.70;71.97;100517.34;5016269;28;20105;-82
2024/03/18 01:32:03;;;;;;;11.00;7.50;;;;;;;15.76;71.47;100505.84;5016393;28;20049;-81
2024/03/18 01:35:08;;;;;;;9.38;7.30;;;;;;;15.90;71.23;100507.91;5016360;28;20495;-82
2024/03/18 01:38:12;;;;;;;10.93;7.05;;;;;;;15.91;70.92;100501.50;5016066;28;20048;-82
2024/03/18 01:41:17;;;;;;;10.45;6.90;;;;;;;16.02;70.91;100498.47;5003963;28;20046;-81
2024/03/18 01:44:23;;;;;;;8.02;6.05;;;;;;;15.99;70.79;100501.53;4984037;28;20485;-82
2024/03/18 01:47:28;;;;;;;11.23;7.18;;;;;;;15.98;70.67;100493.56;4996397;28;20053;-80
2024/03/18 01:50:33;;;;;;;9.05;6.35;;;;;;;15.86;71.00;100487.63;4996215;28;20054;-81
2024/03/18 01:53:38;;;;;;;9.63;6.35;;;;;;;15.85;70.61;100479.66;4996309;28;20053;-81
2024/03/18 01:56:43;;;;;;;7.95;6.20;;;;;;;15.69;70.82;100480.47;4996055;28;20057;-81
2024/03/18 01:59:47;;;;;;;8.57;6.15;;;;;;;15.70;70.56;100476.75;4984276;28;20050;-80
2024/03/18 02:02:52;;;;;;;9.70;6.50;;;;;;;15.52;71.47;100482.28;4995931;28;20401;-80
2024/03/18 02:05:56;;;;;;;8.40;6.15;;;;;;;15.44;71.60;100484.91;4994836;28;20041;-81
2024/03/18 02:09:02;;;;;;;10.55;6.22;;;;;;;15.41;71.52;100487.06;4995766;28;20057;-80
2024/03/18 02:12:07;;;;;;;8.95;5.63;;;;;;;15.46;70.92;100484.75;4996768;28;20062;-80
2024/03/18 02:15:11;;;;;;;7.10;5.32;;;;;;;15.35;71.02;100475.06;4995956;28;20046;-80
2024/03/18 02:18:16;;;;;;;8.65;4.43;;;;;;;15.14;70.43;100476.44;5008355;28;20057;-79
2024/03/18 02:21:20;;;;;;;10.43;4.55;;;;;;;15.15;70.35;100470.06;5017733;28;20068;-80
2024/03/18 02:24:25;;;;;;;10.25;4.50;;;;;;;15.16;71.08;100474.47;4996207;28;20045;-80
2024/03/18 02:27:30;;;;;;;10.75;5.55;;;;;;;15.10;71.06;100475.09;4995757;28;20054;-82
2024/03/18 02:30:35;;;;;;;10.18;5.50;;;;;;;15.14;70.94;100468.34;4994914;28;20046;-80
2024/03/18 02:33:39;;;;;;;7.95;5.07;;;;;;;15.16;70.32;100466.34;4995045;28;20058;-81
2024/03/18 02:36:43;;;;;;;9.13;5.05;;;;;;;14.89;71.29;100457.41;4995863;28;20054;-79
2024/03/18 02:39:48;;;;;;;8.27;4.80;;;;;;;15.01;70.80;100444.44;4995484;28;20057;-81
2024/03/18 02:42:53;;;;;;;8.30;5.05;;;;;;;15.02;70.67;100435.34;4995164;28;20097;-79
2024/03/18 02:45:58;;;;;;;8.98;4.60;;;;;;;14.96;71.27;100434.13;4995414;28;20485;-80
2024/03/18 02:49:02;;;;;;;9.32;5.95;;;;;;;15.09;70.68;100428.28;4995729;28;20053;-81
2024/03/18 02:52:06;;;;;;;7.45;4.90;;;;;;;15.12;70.39;100427.97;4995057;28;20049;-81
2024/03/18 02:55:11;;;;;;;5.97;4.28;;;;;;;15.06;70.50;100428.59;4995365;28;20489;-81
2024/03/18 02:58:17;;;;;;;6.25;4.30;;;;;;;14.49;72.61;100430.13;4995200;28;20081;-82
2024/03/18 03:01:25;;;;;;;7.25;4.32;;;;;;;14.73;71.79;100435.69;4995146;28;20077;-82
2024/03/18 03:04:29;;;;;;;8.80;4.95;;;;;;;14.67;71.45;100430.91;4995137;28;20068;-81
2024/03/18 03:07:33;;;;;;;10.13;5.00;;;;;;;14.65;72.09;100427.53;4997044;28;20500;-81
2024/03/18 03:10:41;;;;;;;8.82;4.57;;;;;;;14.69;71.42;100428.88;5014546;28;20068;-80
2024/03/18 03:13:45;;;;;;;7.80;4.40;;;;;;;14.46;72.19;100424.19;5014701;28;20045;-82
2024/03/18 03:16:49;;;;;;;9.18;4.22;;;;;;;14.74;70.92;100425.75;5015938;28;20048;-80
2024/03/18 03:19:55;;;;;;;5.97;4.10;;;;;;;14.79;70.50;100421.53;5014526;28;20053;-81
2024/03/18 03:22:59;;;;;;;8.82;4.38;;;;;;;14.69;70.72;100412.69;5014454;28;20183;-81
2024/03/18 03:26:04;;;;;;;6.57;4.20;;;;;;;14.55;71.88;100415.97;5014319;28;20089;-79
2024/03/18 03:29:08;;;;;;;6.50;4.47;;;;;;;14.23;72.95;100413.84;5014291;28;20048;-81
2024/03/18 03:32:15;;;;;;;8.45;4.35;;;;;;;14.41;72.25;100404.91;5012030;28;20045;-80
2024/03/18 03:35:19;;;;;;;6.07;4.25;;;;;;;14.53;71.56;100404.47;5013561;28;20049;-80
2024/03/18 03:38:23;;;;;;;11.27;4.88;;;;;;;14.66;71.46;100409.47;5013701;28;20057;-81
2024/03/18 03:41:28;;;;;;;5.30;3.92;;;;;;;14.48;71.71;100409.50;5013569;28;20049;-80
2024/03/18 03:44:33;;;;;;;6.88;4.32;;;;;;;14.64;70.44;100400.69;5013661;28;20068;-80
2024/03/18 03:47:37;;;;;;;8.45;4.95;;;;;;;14.13;71.49;100401.44;5013553;28;20041;-81
2024/03/18 03:50:42;;;;;;;9.38;4.47;;;;;;;14.15;71.60;100402.97;5013815;28;20052;-82
2024/03/18 03:53:47;;;;;;;7.63;4.10;;;;;;;14.17;71.60;100395.56;5013305;28;20389;-81
2024/03/18 03:56:51;;;;;;;5.47;3.83;;;;;;;14.52;70.16;100396.53;5014550;28;20496;-80
2024/03/18 03:59:56;;;;;;;7.18;3.78;;;;;;;14.68;69.63;100393.94;5002310;28;20057;-81
2024/03/18 04:03:00;;;;;;;7.20;4.32;;;;;;;14.79;69.62;100388.25;5023678;28;20060;-80
2024/03/18 04:06:06;;;;;;;6.93;4.35;;;;;;;14.75;69.70;100387.72;5037454;28;20044;-81
2024/03/18 04:09:11;;;;;;;8.65;4.78;;;;;;;14.73;70.33;100387.06;5024854;28;20392;-81
2024/03/18 04:12:15;;;;;;;8.23;4.35;;;;;;;14.60;71.09;100383.94;5001956;28;20057;-81
2024/03/18 04:15:20;;;;;;;6.88;4.10;;;;;;;14.83;69.95;100376.97;5013652;28;20068;-81
2024/03/18 04:18:25;;;;;;;7.32;4.53;;;;;;;14.74;70.40;100391.44;5013955;28;20061;-81
2024/03/18 04:21:29;;;;;;;11.95;5.93;;;;;;;14.62;71.45;100387.31;5013570;28;20068;-81
2024/03/18 04:24:33;;;;;;;10.75;4.50;;;;;;;14.71;70.54;100389.06;5013752;28;20480;-81
2024/03/18 04:27:38;;;;;;;10.95;5.25;;;;;;;14.64;71.65;100387.16;5013726;28;20045;-81
2024/03/18 04:30:43;;;;;;;9.57;5.85;;;;;;;14.61;71.69;100388.34;5001663;28;20580;-81
2024/03/18 04:33:50;;;;;;;8.05;4.63;;;;;;;14.67;71.37;100389.53;5013494;28;20049;-81
2024/03/18 04:36:55;;;;;;;7.47;5.22;;;;;;;14.55;71.43;100394.38;5013846;28;20049;-80
2024/03/18 04:39:59;;;;;;;7.90;5.22;;;;;;;14.31;72.38;100392.34;5013681;28;20056;-81
2024/03/18 04:43:03;;;;;;;10.10;5.28;;;;;;;14.42;71.90;100382.31;5013662;28;20049;-82
2024/03/18 04:46:10;;;;;;;11.45;5.18;;;;;;;14.47;71.82;100390.78;5013848;28;20038;-81
2024/03/18 04:49:14;;;;;;;7.63;5.05;;;;;;;14.51;72.29;100397.53;5013459;28;20041;-81
2024/03/18 04:52:19;;;;;;;9.50;5.40;;;;;;;14.44;72.24;100386.53;5013604;28;20052;-82
2024/03/18 04:55:24;;;;;;;9.25;4.95;;;;;;;14.46;71.72;100386.38;5013444;28;20056;-81
2024/03/18 04:58:28;;;;;;;9.10;5.18;;;;;;;14.31;73.35;100386.09;5017016;28;20152;-81
2024/03/18 05:01:33;;;;;;;11.43;4.63;;;;;;;14.54;72.27;100395.34;5017253;28;20381;-81
2024/03/18 05:04:37;;;;;;;10.57;4.75;;;;;;;14.49;71.99;100400.41;5016990;28;20050;-80
2024/03/18 05:07:42;;;;;;;11.00;4.97;;;;;;;14.38;72.69;100400.66;5016855;28;20403;-79
2024/03/18 05:10:47;;;;;;;9.10;4.28;;;;;;;14.23;72.43;100402.19;5016750;28;20045;-81
2024/03/18 05:13:52;;;;;;;7.47;3.90;;;;;;;14.33;71.93;100400.28;5016558;28;20056;-82
2024/03/18 05:16:57;;;;;;;7.88;4.43;;;;;;;14.25;72.58;100398.34;5016019;28;20057;-80
2024/03/18 05:20:03;;;;;;;6.47;3.90;;;;;;;14.52;70.70;100391.97;5016397;28;20052;-80
2024/03/18 05:23:07;;;;;;;6.75;3.80;;;;;;;14.42;71.39;100393.94;5016613;28;20110;-80
2024/03/18 05:26:12;;;;;;;6.72;3.60;;;;;;;14.60;70.85;100397.44;5016554;28;20057;-80
2024/03/18 05:29:17;;;;;;;11.55;3.95;;;;;;;14.46;70.78;100381.81;5016115;28;20064;-81
2024/03/18 05:32:21;;;;;;;8.25;3.80;;;;;;;14.49;71.31;100391.47;5016431;28;20049;-81
2024/03/18 05:35:26;;;;;;;11.00;4.32;;;;;;;14.20;72.07;100381.75;5016586;28;20045;-81
2024/03/18 05:38:31;;;;;;;7.68;4.63;;;;;;;14.38;71.33;100378.19;4996808;28;20053;-80
2024/03/18 05:41:36;;;;;;;8.35;4.68;;;;;;;14.37;71.40;100377.34;5007857;28;20030;-82
2024/03/18 05:44:40;;;;;;;7.65;4.45;;;;;;;14.52;71.12;100370.38;5005495;28;20056;-80
2024/03/18 05:47:45;;;;;;;7.60;4.18;;;;;;;14.58;71.06;100380.53;5020272;28;20048;-81
2024/03/18 05:50:50;;;;;;;7.15;4.20;;;;;;;14.66;71.56;100371.66;4996779;28;20054;-81
2024/03/18 05:53:54;;;;;;;10.57;4.28;;;;;;;14.70;70.93;100367.59;4996153;28;20053;-82
2024/03/18 05:56:59;;;;;;;13.82;4.78;;;;;;;14.72;71.34;100371.84;4984690;28;20065;-82
2024/03/18 06:00:04;;;;;;;6.30;4.00;;;;;;;14.76;70.85;100367.78;4996532;28;20382;-82
2024/03/18 06:03:16;;;;;;;8.30;4.50;;;;;;;14.82;70.87;100366.31;4996613;28;20501;-82
2024/03/18 06:06:20;;;;;;;5.82;3.80;;;;;;;14.73;71.14;100362.75;4996408;28;20418;-81
2024/03/18 06:09:28;;;;;;;7.60;3.65;;;;;;;14.66;71.93;100369.78;4994949;28;20073;-83
2024/03/18 06:12:35;;;;;;;5.80;3.35;;;;;;;14.56;71.92;100373.59;5002420;28;20057;-82
2024/03/18 06:15:39;;;;;;;13.18;4.05;;;;;;;14.57;71.17;100377.97;5003436;28;20068;-82
2024/03/18 06:18:44;;;;;;;9.88;3.88;;;;;;;14.61;70.64;100385.63;5015679;28;20061;-80
2024/03/18 06:21:51;;;;;;;8.55;3.90;;;;;;;14.44;71.60;100367.63;5015894;28;20053;-81
2024/03/18 06:28:18;;;;;;;8.20;4.03;;;;;;;14.66;71.30;100374.34;5003219;28;20536;-81
2024/03/18 06:31:23;;;;;;;10.05;4.43;;;;;;;14.83;70.71;100370.72;5015197;28;20053;-81
2024/03/18 06:34:27;;;;;;;8.82;4.47;;;;;;;15.07;70.02;100361.84;5015119;28;20053;-82
2024/03/18 06:37:35;;;;;;;9.70;4.30;;;;;;;15.19;69.43;100358.69;5002739;28;20049;-80
2024/03/18 06:40:40;;;;;;;5.93;4.03;;;;;;;15.46;69.21;100365.72;5015074;28;20052;-86
2024/03/18 06:43:45;;;;;;;9.15;4.05;;;;;;;15.69;68.30;100357.81;4991966;28;20057;-89
2024/03/18 06:46:49;;;;;;;5.65;3.13;;;;;;;15.70;67.71;100357.69;5003094;28;20049;-89
2024/03/18 06:49:55;;;;;;;8.45;3.30;;;;;;;15.56;67.04;100367.28;4991089;28;20129;-82
2024/03/18 06:53:00;;;;;;;12.40;7.78;;;;;;;15.65;66.86;100349.22;5003256;28;20053;-85
2024/03/18 06:56:06;;;;;;;17.77;11.57;;;;;;;15.75;66.53;100346.34;5008588;28;20469;-83
2024/03/18 06:59:11;;;;;;;12.40;5.00;;;;;;;15.84;66.62;100350.75;5000370;28;20050;-87
2024/03/18 07:02:16;;;;;;;6.80;2.80;;;;;;;16.03;66.10;100342.28;5001455;28;20056;-85
2024/03/18 07:05:22;;;;;;;6.70;3.20;;;;;;;15.89;66.23;100345.66;5005048;28;20045;-85
2024/03/18 07:08:29;;;;;;;13.77;3.83;;;;;;;15.88;66.64;100344.81;5004959;28;20121;-87
2024/03/18 07:11:33;;;;;;;14.73;4.03;;;;;;;15.96;66.41;100347.53;5025528;28;20045;-80
2024/03/18 07:14:38;;;;;;;10.70;4.15;;;;;;;16.17;65.85;100350.56;5010544;28;20038;-80
2024/03/18 07:17:43;;;;;;;11.75;4.57;;;;;;;16.37;66.13;100350.22;5011537;28;20500;-79
2024/03/18 07:20:49;;;;;;;9.10;4.32;;;;;;;16.59;65.30;100350.34;5013899;28;20385;-78
2024/03/18 07:23:54;;;;;;;10.18;3.72;;;;;;;16.74;64.68;100348.63;5014242;28;20045;-77
2024/03/18 07:26:58;;;;;;;11.07;4.72;;;;;;;17.07;63.48;100353.91;5001539;28;20108;-80
2024/03/18 07:30:03;;;;;;;5.80;3.17;;;;;;;17.36;62.70;100356.81;5001923;28;20057;-77
2024/03/18 07:33:08;;;;;;;9.88;3.70;;;;;;;17.49;61.94;100360.66;5002344;28;20049;-80
2024/03/18 07:36:15;;;;;;;5.78;3.60;;;;;;;17.70;61.49;100362.75;5012988;28;20049;-82
2024/03/18 07:39:20;;;;;;;7.10;3.30;;;;;;;17.81;61.79;100361.50;5013906;28;20060;-79
2024/03/18 07:42:25;;;;;;;10.98;3.65;;;;;;;17.83;61.13;100363.00;5001693;28;20069;-78
2024/03/18 07:45:29;;;;;;;8.60;3.80;;;;;;;17.81;60.97;100366.91;5014020;28;20049;-79
2024/03/18 07:48:34;;;;;;;11.55;3.78;;;;;;;17.95;60.57;100366.97;5013640;28;20069;-80
2024/03/18 07:51:38;;;;;;;7.10;3.95;;;;;;;18.08;60.64;100371.81;5014216;28;20053;-79
2024/03/18 07:54:43;;;;;;;10.10;3.78;;;;;;;18.27;60.18;100359.59;5001573;28;20045;-81
2024/03/18 07:57:48;;;;;;;12.82;4.70;;;;;;;18.45;59.81;100354.66;5013958;28;20500;-78
2024/03/18 08:00:55;;;;;;;10.57;5.25;;;;;;;18.46;60.08;100340.91;5013854;28;20046;-78
2024/03/18 08:04:00;;;;;;;6.63;5.10;;;;;;;18.42;60.50;100331.41;5013884;28;20049;-79
2024/03/18 08:07:05;;;;;;;10.70;6.45;;;;;;;18.29;60.72;100328.50;5013930;28;20068;-79
2024/03/18 08:10:09;;;;;;;9.85;6.40;;;;;;;17.95;62.02;100330.81;5013821;28;20065;-78
2024/03/18 08:13:13;;;;;;;11.25;7.18;;;;;;;17.95;62.49;100328.94;5014137;28;20053;-72
2024/03/18 08:16:18;;;;;;;11.27;7.68;;;;;;;17.53;65.32;100321.28;5013457;28;20500;-71
2024/03/18 08:19:23;;;;;;;12.32;7.97;;;;;;;17.40;66.89;100317.47;5013776;28;20046;-71
2024/03/18 08:22:27;;;;;;;12.43;7.28;;;;;;;17.25;67.94;100330.97;5013876;28;20061;-70
2024/03/18 08:25:32;;;;;;;11.73;7.68;;;;;;;17.68;67.51;100323.25;5013491;28;20061;-70
2024/03/18 08:28:39;;;;;;;11.27;7.60;;;;;;;18.14;66.43;100330.34;5013711;28;20156;-71
2024/03/18 08:31:44;;;;;;;11.93;7.50;;;;;;;18.61;64.51;100322.75;5014539;28;20046;-71
2024/03/18 08:34:48;;;;;;;11.23;7.35;;;;;;;18.61;64.01;100328.19;5005184;28;20052;-72
2024/03/18 08:37:52;;;;;;;13.23;7.68;;;;;;;18.66;64.13;100324.91;5005364;28;20045;-70
2024/03/18 08:40:57;;;;;;;12.77;8.02;;;;;;;18.87;62.97;100315.97;5017324;28;20117;-71
2024/03/18 08:44:02;;;;;;;10.25;7.25;;;;;;;18.78;63.47;100310.66;5017329;28;20073;-70
2024/03/18 08:47:06;;;;;;;14.75;8.10;;;;;;;18.86;63.12;100327.91;4994030;28;20053;-71
2024/03/18 08:50:11;;;;;;;12.95;8.25;;;;;;;18.74;63.81;100331.06;5005025;28;20436;-71
2024/03/18 08:53:16;;;;;;;13.93;8.40;;;;;;;18.56;64.09;100330.63;5017086;28;20045;-71
2024/03/18 08:56:21;;;;;;;13.27;8.50;;;;;;;18.57;64.43;100334.16;5016763;28;20046;-70
2024/03/18 08:59:27;;;;;;;12.48;8.60;;;;;;;18.54;64.63;100321.78;5017216;28;20049;-71
2024/03/18 09:02:32;;;;;;;13.55;9.07;;;;;;;18.47;64.08;100334.44;5016861;28;20098;-70
2024/03/18 09:05:37;;;;;;;14.90;8.82;;;;;;;18.58;64.30;100330.41;5016768;28;20485;-72
2024/03/18 09:08:45;;;;;;;12.35;7.97;;;;;;;18.55;63.21;100328.91;5015769;28;20050;-70
2024/03/18 09:11:49;;;;;;;12.18;8.30;;;;;;;18.76;63.40;100329.00;5005303;28;20038;-71
2024/03/18 09:14:53;;;;;;;14.43;8.90;;;;;;;18.82;63.40;100325.53;5016402;28;20042;-70
2024/03/18 09:17:58;;;;;;;12.25;9.27;;;;;;;18.81;64.34;100310.25;5015882;28;20401;-80
2024/03/18 09:21:03;;;;;;;10.65;8.40;;;;;;;18.94;63.85;100304.13;5016411;28;20048;-79
2024/03/18 09:24:07;;;;;;;12.50;9.18;;;;;;;19.03;63.27;100304.91;5016311;28;20041;-77
2024/03/18 09:27:12;;;;;;;9.75;7.03;;;;;;;19.39;60.81;100297.59;5016114;28;20046;-79
2024/03/18 09:30:16;;;;;;;14.50;9.80;;;;;;;19.52;59.14;100303.19;5016233;28;20473;-78
2024/03/18 09:33:21;;;;;;;13.75;7.95;;;;;;;19.37;59.48;100316.00;5016155;28;20045;-78
2024/03/18 09:36:26;;;;;;;13.38;7.68;;;;;;;19.32;59.97;100300.22;4993080;28;20417;-81
2024/03/18 09:39:30;;;;;;;11.40;7.30;;;;;;;19.42;60.31;100303.53;5016192;28;20053;-79
2024/03/18 09:42:37;;;;;;;11.52;7.45;;;;;;;19.36;59.86;100297.94;5015816;28;20049;-80
2024/03/18 09:45:41;;;;;;;13.50;7.97;;;;;;;19.60;59.66;100292.19;5016101;28;20053;-79
2024/03/18 09:48:46;;;;;;;10.70;7.40;;;;;;;19.92;58.55;100299.81;5015968;28;20042;-79
2024/03/18 09:51:51;;;;;;;12.88;8.18;;;;;;;20.02;58.41;100310.38;5015999;28;20050;-80
2024/03/18 09:54:56;;;;;;;12.30;7.30;;;;;;;19.94;58.75;100300.47;5015902;28;20457;-81
2024/03/18 09:58:04;;;;;;;12.10;8.13;;;;;;;19.69;59.12;100291.00;5015787;28;20053;-80
2024/03/18 10:01:13;;;;;;;10.15;8.02;;;;;;;19.73;59.05;100291.44;5014938;28;20057;-79
2024/03/18 10:04:19;;;;;;;12.30;7.60;;;;;;;19.61;59.81;100282.13;5015671;28;20057;-81
2024/03/18 10:07:23;;;;;;;12.63;9.00;;;;;;;19.66;59.92;100277.78;5003538;28;20076;-80
2024/03/18 10:10:28;;;;;;;14.52;8.98;;;;;;;19.73;59.70;100267.78;5015498;28;20057;-78
2024/03/18 10:13:33;;;;;;;12.65;8.25;;;;;;;19.95;59.13;100266.72;5015465;28;20042;-77
2024/03/18 10:16:38;;;;;;;16.35;8.38;;;;;;;20.11;58.80;100269.16;5014879;28;20053;-77
2024/03/18 10:19:43;;;;;;;11.38;7.93;;;;;;;20.31;57.86;100272.06;5015397;28;20053;-77
2024/03/18 10:22:49;;;;;;;12.70;9.93;;;;;;;20.31;57.90;100257.59;5015427;28;20046;-77
2024/03/18 10:25:54;;;;;;;14.88;8.45;;;;;;;20.80;57.09;100251.97;5015317;28;20113;-80
2024/03/18 10:28:58;;;;;;;12.95;9.27;;;;;;;20.33;57.78;100264.53;5015157;28;20088;-79
2024/03/18 10:32:04;;;;;;;14.10;8.80;;;;;;;20.42;57.85;100252.41;5015161;28;20053;-81
2024/03/18 10:35:23;;;;;;;14.25;9.10;;;;;;;20.38;58.48;100250.28;5014849;28;20045;-86
2024/03/18 10:38:34;;;;;;;11.80;8.23;;;;;;;20.16;58.72;100249.50;5015113;28;20050;-82
2024/03/18 10:41:40;;;;;;;16.88;8.23;;;;;;;20.16;59.09;100249.50;5014773;28;20393;-82
2024/03/18 10:45:02;;;;;;;14.10;8.90;;;;;;;20.03;59.07;100252.97;5014921;28;20048;-82
2024/03/18 10:48:13;;;;;;;14.50;9.45;;;;;;;19.78;59.92;100251.69;5015015;28;20053;-81
2024/03/18 10:51:18;;;;;;;15.30;9.77;;;;;;;19.87;59.71;100247.81;5014868;28;20053;-83
2024/03/18 10:54:25;;;;;;;11.45;9.02;;;;;;;19.57;61.27;100240.84;5013833;28;20450;-83
2024/03/18 10:57:30;;;;;;;14.68;9.38;;;;;;;19.34;62.15;100240.13;5014650;28;20038;-81
2024/03/18 11:00:34;;;;;;;15.65;8.93;;;;;;;19.16;62.46;100254.19;5014697;28;20042;-81
2024/03/18 11:03:46;;;;;;;12.50;9.07;;;;;;;19.05;63.78;100243.81;5014713;28;20053;-81
2024/03/18 11:06:55;;;;;;;14.10;8.63;;;;;;;18.90;64.06;100239.44;5014566;28;20401;-83
2024/03/18 11:10:09;;;;;;;14.95;9.13;;;;;;;18.81;64.63;100236.81;5014698;28;20061;-81
2024/03/18 11:13:36;;;;;;;12.20;8.73;;;;;;;18.69;64.47;100232.03;5014454;28;20064;-80
2024/03/18 11:16:44;;;;;;;14.30;8.63;;;;;;;18.64;64.23;100219.03;5014049;28;20057;-81
2024/03/18 11:19:50;;;;;;;11.73;8.40;;;;;;;18.69;64.54;100208.44;5002617;28;20046;-82
2024/03/18 11:22:57;;;;;;;12.60;8.13;;;;;;;18.98;63.34;100202.09;5015115;28;20041;-85
2024/03/18 11:26:07;;;;;;;15.77;8.50;;;;;;;18.67;63.68;100196.91;5014309;28;20532;-84
2024/03/18 11:29:14;;;;;;;15.40;9.10;;;;;;;18.96;63.84;100192.44;5002283;28;20037;-82
2024/03/18 11:32:19;;;;;;;11.32;7.55;;;;;;;19.01;63.58;100200.88;5014211;28;20393;-82
2024/03/18 11:35:24;;;;;;;11.48;8.00;;;;;;;19.40;62.54;100198.56;5002156;28;20049;-82
2024/03/18 11:38:29;;;;;;;13.38;7.68;;;;;;;19.38;62.49;100193.31;5014263;28;20061;-82
2024/03/18 11:41:35;;;;;;;12.68;7.80;;;;;;;19.25;62.50;100197.75;5014129;28;20054;-82
2024/03/18 11:44:48;;;;;;;10.90;7.40;;;;;;;19.27;62.93;100198.41;5014100;28;20053;-83
2024/03/18 11:48:01;;;;;;;10.98;7.10;;;;;;;19.30;63.06;100192.59;5014081;28;20053;-83
2024/03/18 11:51:09;;;;;;;10.35;7.00;;;;;;;19.30;62.71;100181.69;5002384;28;20042;-81
2024/03/18 11:54:13;;;;;;;10.18;6.65;;;;;;;19.42;61.77;100188.31;5013928;28;20050;-81
2024/03/18 11:57:19;;;;;;;9.63;6.93;;;;;;;19.45;61.94;100177.06;5002033;28;20393;-82
2024/03/18 12:00:24;;;;;;;11.75;7.18;;;;;;;19.69;61.11;100173.91;5013853;28;20057;-82
2024/03/18 12:03:29;;;;;;;11.90;7.10;;;;;;;19.80;61.12;100169.81;5001922;28;20053;-82
2024/03/18 12:06:38;;;;;;;11.55;6.57;;;;;;;19.70;60.96;100164.66;5016628;28;20053;-81
2024/03/18 12:09:43;;;;;;;8.60;6.45;;;;;;;19.65;61.15;100150.84;5005975;28;20457;-82
2024/03/18 12:12:48;;;;;;;7.82;5.90;;;;;;;19.71;60.76;100141.00;5017767;28;20065;-81
2024/03/18 12:15:54;;;;;;;10.48;6.43;;;;;;;19.77;60.30;100130.19;5017940;28;20048;-84
2024/03/18 12:19:07;;;;;;;11.52;5.95;;;;;;;19.97;59.39;100133.03;5005305;28;20052;-83
2024/03/18 12:22:12;;;;;;;11.07;6.00;;;;;;;20.15;59.00;100137.97;5017640;28;20064;-83
2024/03/18 12:28:44;;;;;;;8.68;5.70;;;;;;;19.88;57.61;100147.84;5017157;28;20492;-85
2024/03/18 12:31:52;;;;;;;11.25;5.45;;;;;;;19.98;56.31;100151.88;5017616;28;20048;-83
2024/03/18 12:34:59;;;;;;;7.20;4.95;;;;;;;20.04;57.53;100142.94;5017159;28;20042;-82
2024/03/18 12:38:03;;;;;;;7.72;5.03;;;;;;;20.05;56.60;100139.16;5017385;28;20053;-83
2024/03/18 12:41:21;;;;;;;7.20;4.43;;;;;;;20.25;55.14;100146.59;5005080;28;20058;-83
2024/03/18 12:44:26;;;;;;;8.68;4.43;;;;;;;20.22;52.98;100131.47;5017550;28;20377;-75
2024/03/18 12:47:31;;;;;;;8.00;4.40;;;;;;;20.13;54.60;100132.69;5017498;28;20053;-81
2024/03/18 12:50:36;;;;;;;7.82;4.88;;;;;;;20.46;55.23;100139.19;5017052;28;20053;-81
2024/03/18 12:53:43;;;;;;;10.75;5.78;;;;;;;20.35;56.89;100142.47;5005030;28;20049;-85
2024/03/18 12:56:47;;;;;;;9.10;5.50;;;;;;;20.37;56.16;100134.13;5017059;28;20053;-85
2024/03/18 12:59:52;;;;;;;9.20;6.15;;;;;;;20.38;55.46;100131.19;5017231;28;20049;-84
2024/03/18 13:02:58;;;;;;;7.57;5.18;;;;;;;20.37;55.59;100125.94;5016824;28;20580;-84
2024/03/18 13:06:06;;;;;;;9.18;5.90;;;;;;;20.42;56.30;100126.13;5016915;28;20048;-71
2024/03/18 13:09:14;;;;;;;9.32;6.65;;;;;;;20.36;57.73;100121.50;5016731;28;20053;-84
2024/03/18 13:12:18;;;;;;;10.85;6.30;;;;;;;20.37;58.11;100123.22;5018228;28;20118;-73
2024/03/18 13:15:23;;;;;;;13.48;7.60;;;;;;;20.51;57.35;100119.47;5004743;28;20139;-81
2024/03/18 13:18:27;;;;;;;11.13;6.53;;;;;;;20.47;57.61;100126.38;4984380;28;20405;-81
2024/03/18 13:21:32;;;;;;;12.00;7.10;;;;;;;20.32;57.96;100114.78;4985030;28;20046;-81
2024/03/18 13:24:37;;;;;;;13.10;6.43;;;;;;;20.16;59.21;100109.63;4996868;28;20077;-80
2024/03/18 13:27:43;;;;;;;11.82;6.60;;;;;;;20.07;59.71;100111.72;4996814;28;20386;-81
2024/03/18 13:30:49;;;;;;;9.77;7.20;;;;;;;20.22;58.88;100111.56;4995793;28;20050;-81
2024/03/18 13:33:54;;;;;;;11.50;6.82;;;;;;;20.29;58.74;100096.97;4996793;28;20062;-81
2024/03/18 13:36:58;;;;;;;9.18;6.50;;;;;;;20.38;57.90;100092.16;4984930;28;20057;-81
2024/03/18 13:40:04;;;;;;;11.43;6.85;;;;;;;20.40;57.45;100100.97;4996356;28;20049;-80
2024/03/18 13:43:17;;;;;;;11.63;6.97;;;;;;;20.30;58.44;100095.91;4996290;28;20046;-80
2024/03/18 13:46:22;;;;;;;12.65;6.80;;;;;;;20.19;58.72;100096.47;4996443;28;20049;-81
2024/03/18 13:49:33;;;;;;;10.20;6.72;;;;;;;20.32;58.11;100099.25;4996363;28;20488;-80
2024/03/18 13:52:38;;;;;;;14.02;7.32;;;;;;;20.22;59.06;100092.50;4996586;28;20053;-82
2024/03/18 13:55:43;;;;;;;15.98;6.88;;;;;;;20.21;60.04;100090.78;4996306;28;20065;-80
2024/03/18 13:58:50;;;;;;;10.13;7.05;;;;;;;20.19;60.13;100090.16;4984680;28;20058;-80
2024/03/18 14:01:56;;;;;;;14.30;8.27;;;;;;;20.12;60.66;100098.31;4996175;28;20077;-79
2024/03/18 14:05:00;;;;;;;9.77;6.43;;;;;;;20.11;61.36;100102.06;4996176;28;20394;-80
2024/03/18 14:08:06;;;;;;;11.05;6.93;;;;;;;20.17;61.07;100092.25;4996092;28;20481;-80
2024/03/18 14:11:16;;;;;;;13.77;7.28;;;;;;;20.17;60.17;100101.25;4995967;28;20053;-81
2024/03/18 14:14:20;;;;;;;13.18;7.20;;;;;;;20.11;60.31;100104.81;4996037;28;20050;-81
2024/03/18 14:17:25;;;;;;;12.73;7.25;;;;;;;20.06;60.37;100107.28;4994858;28;20049;-80
2024/03/18 14:20:30;;;;;;;13.00;6.75;;;;;;;20.05;60.27;100103.72;5015422;28;20053;-85
2024/03/18 14:23:34;;;;;;;10.93;7.50;;;;;;;20.01;59.89;100107.91;5003228;28;20049;-79